Time;durP1;ratioP1;P1;durP2;ratioP2;P2;SDS_P1;SDS_P2;PMS_P1;PMS_P2;Temp;Humidity;BMP_temperature;BMP_pressure;BME280_temperature;BME280_humidity;BME280_pressure;Samples;Min_cycle;Max_cycle;Signal;HPM_P1;HPM_P2
2022/05/14 00:00:22;;;;;;;7.53;1.20;;;;;;;10.17;63.61;98261.03;4991646;28;20061;-40
2022/05/14 00:02:48;;;;;;;3.25;1.52;;;;;;;10.18;63.91;98260.97;4986254;28;20530;-40
2022/05/14 00:05:18;;;;;;;5.53;1.75;;;;;;;10.18;63.61;98250.56;4973819;28;20035;-40
2022/05/14 00:07:44;;;;;;;6.80;1.42;;;;;;;10.18;63.41;98257.53;4965109;28;20449;-40
2022/05/14 00:10:10;;;;;;;5.05;1.75;;;;;;;10.16;63.37;98261.94;4989602;28;20092;-40
2022/05/14 00:15:21;;;;;;;1.52;1.08;;;;;;;10.09;63.91;98250.22;4990834;28;20078;-41
2022/05/14 00:17:47;;;;;;;2.50;1.20;;;;;;;10.00;64.01;98246.34;4989866;28;20073;-40
2022/05/14 00:20:15;;;;;;;2.75;1.17;;;;;;;10.08;64.04;98261.50;4984395;28;20447;-41
2022/05/14 00:22:41;;;;;;;4.30;1.48;;;;;;;9.87;63.86;98229.78;4992132;28;20147;-40
2022/05/14 00:25:07;;;;;;;2.80;1.10;;;;;;;10.04;64.17;98257.41;4980629;28;20488;-39
2022/05/14 00:27:33;;;;;;;2.42;1.38;;;;;;;10.02;63.82;98252.31;4974300;28;20042;-40
2022/05/14 00:30:00;;;;;;;3.17;1.33;;;;;;;10.01;64.30;98261.00;4971066;28;20047;-40
2022/05/14 00:32:26;;;;;;;5.15;1.20;;;;;;;9.96;64.39;98250.03;4977591;28;20076;-41
2022/05/14 00:34:52;;;;;;;5.18;1.23;;;;;;;9.95;64.58;98268.28;4989435;28;20476;-40
2022/05/14 00:37:17;;;;;;;1.75;1.00;;;;;;;9.93;64.49;98251.97;4984458;28;20130;-40
2022/05/14 00:39:44;;;;;;;4.32;1.20;;;;;;;9.89;64.42;98247.88;4990165;28;20213;-41
2022/05/14 00:42:10;;;;;;;5.47;1.27;;;;;;;9.78;64.72;98238.06;4992488;28;20491;-40
2022/05/14 00:44:36;;;;;;;4.75;1.23;;;;;;;9.86;65.22;98253.22;4991874;28;20431;-40
2022/05/14 00:47:05;;;;;;;6.72;1.50;;;;;;;9.82;65.05;98249.97;4991056;28;20065;-40
2022/05/14 00:49:32;;;;;;;3.72;1.00;;;;;;;9.82;64.99;98251.72;4989623;28;20102;-40
2022/05/14 00:51:59;;;;;;;8.55;1.30;;;;;;;9.76;65.07;98250.28;4991923;28;20041;-42
2022/05/14 00:54:34;;;;;;;2.50;1.20;;;;;;;9.77;64.79;98254.56;4967139;28;20515;-39
2022/05/14 00:57:05;;;;;;;4.55;1.42;;;;;;;9.74;65.58;98245.16;4964715;28;20073;-41
2022/05/14 00:59:31;;;;;;;2.40;0.95;;;;;;;9.74;65.57;98254.72;4974325;28;20429;-43
2022/05/14 01:01:58;;;;;;;3.47;1.05;;;;;;;9.72;65.50;98256.56;4991397;28;20125;-40
2022/05/14 01:04:25;;;;;;;3.28;1.10;;;;;;;9.63;65.50;98239.72;4990777;28;20054;-39
2022/05/14 01:06:56;;;;;;;4.97;1.38;;;;;;;9.66;65.73;98256.88;4990116;28;20053;-40
2022/05/14 01:09:22;;;;;;;3.63;1.27;;;;;;;9.62;66.32;98247.59;4990204;28;20128;-40
2022/05/14 01:11:50;;;;;;;7.63;1.13;;;;;;;9.61;66.05;98251.94;4989375;28;20129;-40
2022/05/14 01:14:17;;;;;;;4.47;1.42;;;;;;;9.62;66.29;98250.19;4990226;28;20136;-39
2022/05/14 01:16:43;;;;;;;3.33;1.42;;;;;;;9.66;66.19;98243.91;4989162;28;20510;-39
2022/05/14 01:19:10;;;;;;;4.40;1.40;;;;;;;9.65;65.81;98243.06;4982583;28;20068;-41
2022/05/14 01:21:43;;;;;;;6.00;1.13;;;;;;;9.65;66.16;98242.22;4970480;28;20046;-40
2022/05/14 01:26:58;;;;;;;2.80;1.35;;;;;;;9.60;66.05;98236.47;4972052;28;20042;-40
2022/05/14 01:29:26;;;;;;;3.22;1.45;;;;;;;9.65;65.93;98230.09;4986443;28;20039;-40
2022/05/14 01:31:57;;;;;;;5.13;1.70;;;;;;;9.69;66.19;98234.19;4980271;28;20085;-41
2022/05/14 01:34:28;;;;;;;2.75;1.33;;;;;;;9.71;66.21;98229.78;4983225;28;20089;-39
2022/05/14 01:36:55;;;;;;;4.88;1.40;;;;;;;9.69;66.00;98231.59;4983872;28;20533;-41
2022/05/14 01:39:21;;;;;;;5.80;1.25;;;;;;;9.70;65.70;98224.66;4990946;28;20042;-40
2022/05/14 01:41:48;;;;;;;5.80;1.20;;;;;;;9.71;66.04;98224.59;4979025;28;20121;-40
2022/05/14 01:44:14;;;;;;;3.38;1.77;;;;;;;9.74;66.16;98227.00;4970973;28;20134;-39
2022/05/14 01:46:40;;;;;;;4.07;1.20;;;;;;;9.74;66.13;98236.53;4991956;28;20507;-40
2022/05/14 01:49:07;;;;;;;4.18;1.35;;;;;;;9.77;66.07;98231.19;4977812;28;20043;-39
2022/05/14 01:51:34;;;;;;;5.28;1.45;;;;;;;9.75;66.17;98231.28;4987061;28;20533;-41
2022/05/14 01:54:02;;;;;;;4.90;1.13;;;;;;;9.73;65.80;98214.13;4972052;28;20054;-40
2022/05/14 01:56:28;;;;;;;1.80;1.10;;;;;;;9.79;65.90;98231.94;4960790;28;20068;-41
2022/05/14 01:58:54;;;;;;;3.28;1.67;;;;;;;9.78;65.50;98235.47;4982014;28;20098;-40
2022/05/14 02:01:27;;;;;;;2.10;1.00;;;;;;;9.81;65.71;98237.06;4991973;28;20065;-39
2022/05/14 02:03:55;;;;;;;2.45;1.38;;;;;;;9.78;65.93;98238.91;4972659;28;20594;-41
2022/05/14 02:06:24;;;;;;;4.28;1.40;;;;;;;9.79;65.82;98244.91;4991664;28;20053;-39
2022/05/14 02:08:50;;;;;;;2.85;1.00;;;;;;;9.82;66.06;98236.97;4989419;28;20034;-41
2022/05/14 02:11:17;;;;;;;4.82;1.40;;;;;;;9.82;66.11;98249.13;4970603;28;20044;-40
2022/05/14 02:13:47;;;;;;;3.22;1.10;;;;;;;9.79;65.86;98226.75;4977993;28;20069;-40
2022/05/14 02:16:14;;;;;;;5.28;1.08;;;;;;;9.83;65.81;98236.06;4974675;28;20509;-40
2022/05/14 02:18:40;;;;;;;6.82;1.35;;;;;;;9.85;65.77;98236.81;4989206;28;20042;-39
2022/05/14 02:21:07;;;;;;;2.20;1.20;;;;;;;9.88;65.65;98236.66;4990116;28;20061;-40
2022/05/14 02:23:36;;;;;;;2.17;1.00;;;;;;;9.76;64.97;98219.97;4970106;28;20522;-40
2022/05/14 02:26:07;;;;;;;2.58;0.90;;;;;;;9.96;65.06;98244.84;4973071;28;20101;-40
2022/05/14 02:28:34;;;;;;;3.40;0.73;;;;;;;9.97;65.47;98243.09;4989637;28;20052;-39
2022/05/14 02:31:00;;;;;;;1.92;1.05;;;;;;;9.95;65.48;98245.75;4990919;28;20180;-41
2022/05/14 02:33:26;;;;;;;6.90;1.00;;;;;;;9.91;65.82;98246.84;4980941;28;20134;-41
2022/05/14 02:35:52;;;;;;;2.38;0.60;;;;;;;9.92;65.56;98247.69;4989401;28;20124;-40
2022/05/14 02:38:18;;;;;;;1.95;1.10;;;;;;;9.92;65.59;98252.88;4989306;28;20573;-41
2022/05/14 02:40:44;;;;;;;2.15;0.90;;;;;;;9.92;65.99;98256.31;4990523;28;20042;-40
2022/05/14 02:43:10;;;;;;;4.30;1.42;;;;;;;9.91;66.09;98249.44;4973839;28;20054;-40
2022/05/14 02:45:36;;;;;;;5.03;1.20;;;;;;;9.93;66.22;98250.22;4971756;28;20137;-40
2022/05/14 02:48:03;;;;;;;2.55;1.13;;;;;;;10.01;65.65;98245.44;4986632;28;20422;-40
2022/05/14 02:50:28;;;;;;;4.38;1.30;;;;;;;10.07;65.33;98245.09;4990308;28;20045;-40
2022/05/14 02:52:54;;;;;;;5.47;1.00;;;;;;;10.07;65.44;98252.03;4992204;28;20046;-41
2022/05/14 02:55:20;;;;;;;3.47;1.50;;;;;;;10.07;65.22;98247.69;4993352;28;20544;-41
2022/05/14 02:57:46;;;;;;;6.05;1.70;;;;;;;10.06;64.85;98246.00;4975948;28;20042;-40
2022/05/14 03:00:16;;;;;;;3.30;1.08;;;;;;;10.08;65.33;98249.38;4994045;28;20472;-42
2022/05/14 03:02:43;;;;;;;3.25;0.50;;;;;;;10.14;65.08;98256.00;4992021;28;20046;-40
2022/05/14 03:05:12;;;;;;;1.60;1.10;;;;;;;10.14;64.93;98250.78;4993769;28;20074;-40
2022/05/14 03:07:39;;;;;;;3.00;0.93;;;;;;;10.19;65.29;98259.19;4990932;28;20038;-40
2022/05/14 03:10:05;;;;;;;3.90;0.90;;;;;;;10.17;65.19;98256.69;4986039;28;20136;-41
2022/05/14 03:12:31;;;;;;;5.03;1.30;;;;;;;10.12;65.53;98235.28;4993038;28;20040;-40
2022/05/14 03:14:57;;;;;;;3.58;1.20;;;;;;;10.11;65.24;98240.56;4992772;28;20038;-41
2022/05/14 03:17:24;;;;;;;2.72;0.90;;;;;;;10.18;65.47;98258.34;4993789;28;20532;-41
2022/05/14 03:19:50;;;;;;;3.05;1.08;;;;;;;10.20;65.67;98256.50;4992112;28;20034;-42
2022/05/14 03:22:16;;;;;;;4.35;1.00;;;;;;;10.22;65.11;98258.19;4992852;28;20041;-41
2022/05/14 03:24:42;;;;;;;2.63;1.10;;;;;;;10.26;65.52;98265.72;4993245;28;20046;-40
2022/05/14 03:27:08;;;;;;;4.40;1.20;;;;;;;10.30;65.00;98267.25;4954926;28;20093;-41
2022/05/14 03:29:35;;;;;;;5.40;1.20;;;;;;;10.37;64.89;98265.09;4991083;28;20089;-40
2022/05/14 03:32:01;;;;;;;2.13;0.93;;;;;;;10.44;64.64;98263.84;4972946;28;20046;-41
2022/05/14 03:34:27;;;;;;;1.98;1.08;;;;;;;10.54;64.46;98273.63;4974487;28;20042;-41
2022/05/14 03:36:53;;;;;;;5.32;1.05;;;;;;;10.61;64.12;98271.53;4990205;28;20038;-40
2022/05/14 03:39:20;;;;;;;2.08;1.23;;;;;;;10.68;63.55;98259.03;4989208;28;20047;-40
2022/05/14 03:41:46;;;;;;;3.08;0.93;;;;;;;10.78;63.27;98267.97;4992088;28;20050;-40
2022/05/14 03:44:12;;;;;;;3.30;1.10;;;;;;;10.86;63.23;98273.56;4990874;28;20045;-41
2022/05/14 03:46:39;;;;;;;5.13;1.25;;;;;;;10.91;62.96;98266.31;4974244;28;20430;-39
2022/05/14 03:49:05;;;;;;;2.10;0.98;;;;;;;10.93;63.25;98270.53;4986049;28;20046;-40
2022/05/14 03:51:31;;;;;;;4.80;0.73;;;;;;;10.87;62.04;98267.44;4992003;28;20097;-40
2022/05/14 03:53:58;;;;;;;3.40;1.00;;;;;;;10.89;62.78;98284.59;4992199;28;20050;-41
2022/05/14 03:56:24;;;;;;;4.60;1.00;;;;;;;10.94;62.01;98274.78;4992743;28;20414;-41
2022/05/14 03:58:50;;;;;;;6.65;1.10;;;;;;;10.98;61.78;98275.47;4989807;28;20049;-42
2022/05/14 04:01:17;;;;;;;3.67;0.98;;;;;;;11.03;62.00;98271.66;4987517;28;20042;-41
2022/05/14 04:03:44;;;;;;;3.17;0.90;;;;;;;11.13;61.78;98271.94;4991181;28;20046;-41
2022/05/14 04:06:09;;;;;;;2.03;0.95;;;;;;;11.21;61.40;98280.13;4975017;28;20069;-41
2022/05/14 04:08:36;;;;;;;2.42;0.85;;;;;;;11.22;61.34;98262.75;4992383;28;20069;-40
2022/05/14 04:11:02;;;;;;;0.98;0.60;;;;;;;11.34;60.68;98275.88;4993011;28;20514;-41
2022/05/14 04:13:28;;;;;;;3.83;0.95;;;;;;;11.41;60.73;98265.91;4955090;28;20590;-41
2022/05/14 04:15:54;;;;;;;2.17;0.77;;;;;;;11.47;60.56;98274.19;4970326;28;20150;-41
2022/05/14 04:18:24;;;;;;;1.73;1.08;;;;;;;11.59;60.13;98272.63;4992638;28;20038;-40
2022/05/14 04:20:55;;;;;;;3.85;1.15;;;;;;;11.70;60.26;98269.38;4991503;28;20042;-41
2022/05/14 04:23:22;;;;;;;1.73;0.85;;;;;;;11.78;60.11;98264.53;4974203;28;20038;-40
2022/05/14 04:25:52;;;;;;;1.77;0.60;;;;;;;11.88;59.35;98270.84;4992089;28;20046;-41
2022/05/14 04:28:21;;;;;;;1.48;0.65;;;;;;;11.88;58.36;98265.66;4990752;28;20101;-40
2022/05/14 04:30:48;;;;;;;2.53;0.82;;;;;;;11.89;58.52;98260.34;4975017;28;20125;-40
2022/05/14 04:33:15;;;;;;;1.30;0.70;;;;;;;12.03;58.53;98256.91;4987990;28;20114;-40
2022/05/14 04:35:41;;;;;;;2.22;0.93;;;;;;;12.07;57.52;98255.78;4991657;28;20494;-40
2022/05/14 04:38:07;;;;;;;5.13;0.95;;;;;;;12.12;57.68;98253.72;4991761;28;20038;-41
2022/05/14 04:40:33;;;;;;;5.78;1.08;;;;;;;12.19;57.05;98259.38;4977535;28;20089;-41
2022/05/14 04:43:00;;;;;;;4.88;0.82;;;;;;;12.15;56.73;98237.03;4988574;28;20042;-41
2022/05/14 04:45:26;;;;;;;5.40;0.75;;;;;;;12.33;56.53;98261.94;4990931;28;20399;-41
2022/05/14 04:47:53;;;;;;;1.98;0.82;;;;;;;12.42;56.60;98258.72;4971992;28;20426;-40
2022/05/14 04:50:20;;;;;;;2.65;0.90;;;;;;;12.48;56.42;98241.84;4989948;28;20501;-41
2022/05/14 04:52:46;;;;;;;3.20;1.00;;;;;;;12.69;56.12;98256.94;4989971;28;20093;-40
2022/05/14 04:55:13;;;;;;;5.65;0.90;;;;;;;12.82;55.59;98258.75;4991051;28;20513;-42
2022/05/14 04:57:43;;;;;;;2.85;0.70;;;;;;;12.98;55.67;98249.78;4959238;28;20043;-41
2022/05/14 05:00:14;;;;;;;2.47;0.75;;;;;;;13.05;54.95;98256.25;4963472;28;20509;-45
2022/05/14 05:05:27;;;;;;;3.33;0.85;;;;;;;13.21;54.21;98244.81;4975312;28;20050;-40
2022/05/14 05:07:54;;;;;;;2.60;0.80;;;;;;;13.32;53.63;98258.81;4973215;28;20569;-41
2022/05/14 05:10:20;;;;;;;3.53;0.90;;;;;;;13.30;53.85;98254.63;4989885;28;20046;-40
2022/05/14 05:12:46;;;;;;;1.73;0.75;;;;;;;13.32;53.43;98235.31;4991893;28;20045;-40
2022/05/14 05:15:12;;;;;;;3.97;1.40;;;;;;;13.46;53.69;98250.03;4980724;28;20051;-41
2022/05/14 05:17:37;;;;;;;3.55;0.90;;;;;;;13.54;53.42;98252.97;4990774;28;20556;-41
2022/05/14 05:20:04;;;;;;;4.80;0.90;;;;;;;13.45;52.79;98245.78;4991630;28;20066;-41
2022/05/14 05:22:30;;;;;;;4.40;1.10;;;;;;;13.55;52.91;98242.38;4990631;28;20125;-42
2022/05/14 05:24:56;;;;;;;1.80;0.77;;;;;;;13.69;52.67;98251.06;4990618;28;20577;-42
2022/05/14 05:27:23;;;;;;;4.20;0.70;;;;;;;13.74;52.01;98249.78;4991563;28;20109;-40
2022/05/14 05:29:48;;;;;;;1.40;0.80;;;;;;;13.85;51.50;98249.03;4987292;28;20375;-41
2022/05/14 05:32:15;;;;;;;1.85;0.60;;;;;;;14.11;50.97;98245.41;4983840;28;20050;-41
2022/05/14 05:34:40;;;;;;;1.20;0.57;;;;;;;14.48;50.73;98242.78;4976002;28;20046;-40
2022/05/14 05:37:06;;;;;;;0.93;0.60;;;;;;;14.69;49.64;98241.22;4991656;28;20042;-41
2022/05/14 05:39:32;;;;;;;1.13;0.57;;;;;;;14.53;49.10;98246.72;4985471;28;20042;-41
2022/05/14 05:41:58;;;;;;;5.18;0.98;;;;;;;14.40;49.39;98238.94;4980702;28;20046;-40
2022/05/14 05:44:25;;;;;;;2.47;0.63;;;;;;;14.63;49.42;98245.09;4990875;28;20034;-40
2022/05/14 05:46:52;;;;;;;1.55;0.60;;;;;;;14.92;48.14;98244.72;4990559;28;20042;-40
2022/05/14 05:49:17;;;;;;;2.28;0.60;;;;;;;15.07;47.40;98257.47;4974525;28;20062;-40
2022/05/14 05:51:43;;;;;;;0.85;0.40;;;;;;;15.00;46.62;98248.44;4977619;28;20507;-39
2022/05/14 05:57:04;;;;;;;1.98;0.80;;;;;;;15.00;45.49;98211.81;4939288;28;20574;-40
2022/05/14 05:59:32;;;;;;;2.63;0.50;;;;;;;15.30;46.37;98242.66;4990792;28;20042;-42
2022/05/14 06:01:58;;;;;;;3.45;1.17;;;;;;;15.42;46.29;98218.16;4989474;28;20049;-41
2022/05/14 06:04:24;;;;;;;2.33;0.55;;;;;;;15.39;45.11;98244.56;4991182;28;20077;-40
2022/05/14 06:06:50;;;;;;;1.77;0.68;;;;;;;15.52;44.49;98236.63;4990702;28;20340;-40
2022/05/14 06:09:19;;;;;;;2.45;0.63;;;;;;;15.61;43.75;98242.00;4988550;28;20038;-42
2022/05/14 06:11:45;;;;;;;0.95;0.50;;;;;;;15.84;43.83;98239.38;4989672;28;20043;-42
2022/05/14 06:14:11;;;;;;;2.90;0.60;;;;;;;15.99;43.38;98232.91;4989173;28;20573;-40
2022/05/14 06:16:37;;;;;;;3.92;0.50;;;;;;;16.17;43.25;98241.13;4991073;28;20514;-42
2022/05/14 06:19:03;;;;;;;1.38;0.70;;;;;;;16.16;42.82;98242.91;4990002;28;20064;-41
2022/05/14 06:21:29;;;;;;;2.47;0.60;;;;;;;16.02;42.70;98219.53;4989841;28;20455;-40
2022/05/14 06:23:55;;;;;;;3.70;0.60;;;;;;;16.15;42.67;98245.63;4973405;28;20149;-41
2022/05/14 06:26:22;;;;;;;5.10;0.80;;;;;;;16.65;41.80;98231.06;4986384;28;20078;-40
2022/05/14 06:28:47;;;;;;;1.42;0.60;;;;;;;17.28;40.85;98238.00;4990089;28;20430;-39
2022/05/14 06:31:16;;;;;;;1.95;0.60;;;;;;;17.95;39.07;98212.00;4994278;28;20042;-40
2022/05/14 06:33:46;;;;;;;3.05;0.82;;;;;;;19.27;37.32;98223.69;4985459;28;20049;-39
2022/05/14 06:36:13;;;;;;;3.80;0.70;;;;;;;19.99;34.96;98241.50;4981788;28;20863;-41
2022/05/14 06:38:39;;;;;;;1.58;0.80;;;;;;;20.16;34.66;98218.72;4978926;28;20039;-41
2022/05/14 06:41:10;;;;;;;2.03;0.50;;;;;;;21.01;33.10;98232.28;4977330;28;20042;-40
2022/05/14 06:43:36;;;;;;;1.90;0.70;;;;;;;21.92;32.68;98219.44;4987263;28;20046;-41
2022/05/14 06:46:02;;;;;;;5.28;1.10;;;;;;;22.78;32.38;98228.78;4975122;28;20046;-41
2022/05/14 06:48:28;;;;;;;2.83;0.63;;;;;;;23.53;29.02;98231.22;4989365;28;20132;-41
2022/05/14 06:50:55;;;;;;;3.33;0.93;;;;;;;23.29;29.32;98228.59;4987539;28;20043;-40
2022/05/14 06:53:22;;;;;;;2.97;0.80;;;;;;;24.25;28.04;98226.66;4985597;28;20042;-40
2022/05/14 06:55:52;;;;;;;5.07;1.10;;;;;;;25.46;25.97;98231.03;4975992;28;20046;-40
2022/05/14 06:58:20;;;;;;;1.30;0.80;;;;;;;25.00;26.35;98222.34;4982102;28;20494;-41
2022/05/14 07:00:46;;;;;;;2.20;0.70;;;;;;;23.03;28.63;98232.25;4976065;28;20047;-41
2022/05/14 07:08:41;;;;;;;3.38;0.90;;;;;;;21.09;31.53;98205.91;4985982;28;20172;-41
2022/05/14 07:11:11;;;;;;;2.92;0.90;;;;;;;22.32;29.55;98192.28;4974742;28;20071;-41
2022/05/14 07:13:38;;;;;;;1.90;0.70;;;;;;;22.70;28.84;98199.63;4989559;28;20041;-42
2022/05/14 07:16:04;;;;;;;4.65;0.77;;;;;;;22.16;29.49;98187.78;4973375;28;20101;-42
2022/05/14 07:18:29;;;;;;;4.32;0.60;;;;;;;21.13;31.12;98190.56;4985365;28;20042;-40
2022/05/14 07:20:56;;;;;;;2.97;1.67;;;;;;;20.30;32.60;98194.50;4992651;28;20042;-44
2022/05/14 07:23:21;;;;;;;7.88;0.90;;;;;;;20.03;33.12;98199.81;4990636;28;20057;-46
2022/05/14 07:25:47;;;;;;;3.53;0.93;;;;;;;19.17;34.41;98188.63;4991149;28;20050;-48
2022/05/14 07:28:14;;;;;;;3.30;0.98;;;;;;;18.83;35.03;98198.00;4993299;28;20038;-45
2022/05/14 07:30:39;;;;;;;3.80;1.10;;;;;;;18.79;35.09;98186.88;4992618;28;20038;-44
2022/05/14 07:33:05;;;;;;;3.05;0.82;;;;;;;19.13;34.25;98189.88;4990094;28;20094;-45
2022/05/14 07:35:31;;;;;;;1.42;0.80;;;;;;;21.65;30.23;98209.91;4992911;28;20038;-46
2022/05/14 07:37:58;;;;;;;2.08;0.70;;;;;;;23.11;27.64;98202.25;4964036;28;20575;-43
2022/05/14 07:40:27;;;;;;;7.78;1.08;;;;;;;24.41;26.02;98211.44;4987771;28;20073;-42
2022/05/14 07:42:58;;;;;;;5.05;0.82;;;;;;;25.66;23.97;98200.22;4953073;28;20141;-43
2022/05/14 07:45:35;;;;;;;2.15;1.00;;;;;;;25.18;23.47;98192.72;4992339;28;20576;-43
2022/05/14 07:48:21;;;;;;;1.40;0.85;;;;;;;25.95;23.02;98196.72;4988227;28;20127;-42
2022/05/14 07:50:47;;;;;;;2.60;0.90;;;;;;;26.11;22.33;98190.34;4992199;28;20042;-45
2022/05/14 07:53:17;;;;;;;2.92;0.90;;;;;;;26.02;22.21;98180.81;4981241;28;20053;-41
2022/05/14 07:55:45;;;;;;;1.45;0.88;;;;;;;26.61;21.77;98197.47;4984306;28;20506;-44
2022/05/14 07:58:11;;;;;;;3.60;1.08;;;;;;;26.82;22.24;98192.13;4979526;28;20549;-46
2022/05/14 08:00:37;;;;;;;2.35;0.85;;;;;;;24.29;24.44;98202.22;4985283;28;20046;-51
2022/05/14 08:03:04;;;;;;;1.40;0.60;;;;;;;22.67;26.22;98205.22;4975633;28;20054;-42
2022/05/14 08:05:30;;;;;;;3.25;1.20;;;;;;;21.29;28.15;98189.88;4974202;28;20085;-43
2022/05/14 08:07:55;;;;;;;2.85;0.77;;;;;;;20.44;29.25;98195.78;4973424;28;20070;-41
2022/05/14 08:10:22;;;;;;;2.67;0.80;;;;;;;19.36;30.88;98188.59;4975655;28;20038;-41
2022/05/14 08:12:54;;;;;;;2.53;1.10;;;;;;;18.86;31.88;98197.69;4987142;28;20578;-41
2022/05/14 08:15:21;;;;;;;4.05;1.05;;;;;;;18.78;32.06;98190.53;4975700;28;20550;-42
2022/05/14 08:17:47;;;;;;;7.18;1.20;;;;;;;19.43;31.42;98170.34;4983768;28;20498;-40
2022/05/14 08:20:15;;;;;;;3.55;0.90;;;;;;;22.37;27.11;98179.38;4979460;28;20035;-41
2022/05/14 08:25:27;;;;;;;2.90;1.10;;;;;;;24.82;24.16;98171.25;4992664;28;20034;-41
2022/05/14 08:27:53;;;;;;;6.95;1.10;;;;;;;26.92;22.06;98189.16;4989087;28;20252;-42
2022/05/14 08:30:22;;;;;;;2.55;0.80;;;;;;;26.29;22.23;98174.78;4971965;28;20046;-41
2022/05/14 08:32:48;;;;;;;5.45;2.05;;;;;;;24.30;24.21;98179.13;4953966;28;20137;-41
2022/05/14 08:35:14;;;;;;;3.70;1.40;;;;;;;25.27;23.47;98194.31;4978070;28;20046;-44
2022/05/14 08:37:40;;;;;;;6.45;0.80;;;;;;;25.86;22.54;98184.50;4984678;28;20124;-47
2022/05/14 08:40:10;;;;;;;3.20;0.60;;;;;;;24.98;23.62;98183.63;4983097;28;20426;-50
2022/05/14 08:42:37;;;;;;;3.00;1.00;;;;;;;25.48;22.86;98188.28;4981519;28;20513;-42
2022/05/14 08:45:04;;;;;;;3.28;0.68;;;;;;;24.87;23.01;98185.69;4984443;28;20133;-43
2022/05/14 08:47:48;;;;;;;3.05;0.80;;;;;;;23.39;24.86;98176.19;4974781;28;20079;-45
2022/05/14 08:50:14;;;;;;;4.22;1.00;;;;;;;22.82;25.79;98181.56;4972596;28;20034;-46
2022/05/14 08:52:41;;;;;;;5.00;1.15;;;;;;;22.46;25.84;98186.34;4983731;28;20061;-45
2022/05/14 08:55:12;;;;;;;4.05;0.82;;;;;;;24.03;24.08;98177.75;4966257;28;20053;-45
2022/05/14 08:57:59;;;;;;;3.03;0.73;;;;;;;22.72;24.91;98168.50;4992001;28;20084;-41
2022/05/14 09:00:25;;;;;;;3.45;0.70;;;;;;;21.55;25.96;98180.94;4979770;28;20416;-42
2022/05/14 09:02:53;;;;;;;2.70;0.70;;;;;;;21.71;26.05;98182.00;4983814;28;20145;-41
2022/05/14 09:05:30;;;;;;;2.93;0.90;;;;;;;21.22;26.98;98180.91;4985871;28;20062;-42
2022/05/14 09:07:56;;;;;;;3.03;0.70;;;;;;;21.13;27.60;98170.25;4984048;28;20076;-41
2022/05/14 09:10:29;;;;;;;51.38;4.90;;;;;;;21.36;28.08;98175.03;4987271;28;20130;-42
2022/05/14 09:13:01;;;;;;;1.83;0.70;;;;;;;21.04;27.64;98173.00;4972914;28;20521;-41
2022/05/14 09:15:31;;;;;;;1.27;0.70;;;;;;;20.45;27.87;98176.34;5000042;28;20128;-40
2022/05/14 09:18:11;;;;;;;3.00;0.90;;;;;;;20.75;27.73;98162.72;4998134;28;20034;-41
2022/05/14 09:20:47;;;;;;;3.80;0.70;;;;;;;20.41;27.68;98164.44;4990024;28;20129;-41
2022/05/14 09:23:24;;;;;;;1.92;0.68;;;;;;;19.80;28.33;98171.19;4991440;28;20540;-39
2022/05/14 09:25:50;;;;;;;2.40;0.60;;;;;;;19.31;29.29;98180.25;4984778;28;20073;-39
2022/05/14 09:28:41;;;;;;;5.97;1.38;;;;;;;18.89;30.08;98160.56;4991339;28;20045;-39
2022/05/14 09:31:08;;;;;;;2.13;1.00;;;;;;;18.60;31.31;98165.84;4989916;28;20105;-40
2022/05/14 09:33:40;;;;;;;3.25;0.70;;;;;;;18.52;32.16;98160.44;4995978;28;20129;-41
2022/05/14 09:36:14;;;;;;;3.80;0.90;;;;;;;18.60;32.01;98165.84;4990175;28;20461;-40
2022/05/14 09:38:39;;;;;;;5.15;1.20;;;;;;;18.84;31.37;98155.69;4988436;28;20038;-42
2022/05/14 09:41:23;;;;;;;1.23;0.73;;;;;;;20.99;28.50;98156.78;4979116;28;20046;-40
2022/05/14 09:43:51;;;;;;;2.65;0.90;;;;;;;21.67;27.07;98146.28;4970202;28;20126;-41
2022/05/14 09:46:43;;;;;;;11.43;1.55;;;;;;;20.92;28.14;98151.31;4974248;28;20121;-41
2022/05/14 09:49:18;;;;;;;2.53;0.73;;;;;;;20.18;29.11;98148.19;4983574;28;20065;-40
2022/05/14 09:52:02;;;;;;;4.45;1.23;;;;;;;19.89;29.71;98166.81;4971701;28;20043;-41
2022/05/14 09:54:50;;;;;;;6.55;1.20;;;;;;;19.40;30.64;98154.84;4954557;28;20338;-40
2022/05/14 09:57:47;;;;;;;5.68;1.02;;;;;;;21.02;28.79;98156.47;4980814;28;20050;-40
2022/05/14 10:00:15;;;;;;;5.15;0.90;;;;;;;21.12;28.69;98155.38;4972210;28;20090;-39
2022/05/14 10:02:54;;;;;;;2.10;0.98;;;;;;;20.99;28.89;98164.69;4975782;28;20053;-41
2022/05/14 10:05:39;;;;;;;6.95;1.27;;;;;;;23.20;26.13;98158.81;4993048;28;20056;-41
2022/05/14 10:08:26;;;;;;;2.55;0.95;;;;;;;24.04;25.44;98158.19;4975991;28;20089;-41
2022/05/14 10:11:03;;;;;;;4.95;1.00;;;;;;;24.97;24.62;98169.50;4992816;28;20053;-40
2022/05/14 10:13:44;;;;;;;4.20;1.88;;;;;;;25.31;24.35;98148.53;4989909;28;20130;-42
2022/05/14 10:16:34;;;;;;;2.95;0.90;;;;;;;25.13;24.25;98147.22;4991214;28;20520;-40
2022/05/14 10:19:03;;;;;;;3.83;1.23;;;;;;;26.58;22.48;98149.88;4975770;28;20515;-41
2022/05/14 10:21:35;;;;;;;5.35;1.23;;;;;;;27.71;21.51;98145.16;4988045;28;20084;-40
2022/05/14 10:26:58;;;;;;;6.15;1.00;;;;;;;23.08;25.71;98139.00;4976508;28;20042;-43
2022/05/14 10:29:43;;;;;;;4.45;1.10;;;;;;;21.78;28.70;98156.53;4975770;28;20041;-41
2022/05/14 10:32:12;;;;;;;4.43;1.20;;;;;;;19.52;39.34;98156.38;4974370;28;20047;-42
2022/05/14 10:34:57;;;;;;;5.47;0.98;;;;;;;18.46;41.11;98159.19;4974510;28;20043;-41
2022/05/14 10:37:44;;;;;;;4.03;0.93;;;;;;;18.43;40.38;98158.63;4984258;28;20137;-40
2022/05/14 10:40:58;;;;;;;5.20;0.90;;;;;;;18.92;38.50;98155.00;4994869;28;20114;-40
2022/05/14 10:43:29;;;;;;;6.38;1.17;;;;;;;20.07;37.70;98137.84;4979863;28;20055;-41
2022/05/14 10:45:57;;;;;;;12.63;1.80;;;;;;;23.37;34.56;98152.50;4975331;28;20046;-43
2022/05/14 10:48:56;;;;;;;3.47;1.17;;;;;;;25.89;27.09;98144.19;4975470;28;20046;-43
2022/05/14 10:51:29;;;;;;;6.00;1.33;;;;;;;27.69;24.48;98141.84;4987112;28;20038;-41
2022/05/14 10:53:55;;;;;;;2.72;1.13;;;;;;;28.30;22.67;98141.06;4978891;28;20092;-41
2022/05/14 10:56:37;;;;;;;1.95;0.85;;;;;;;27.79;22.23;98128.94;5010320;28;20481;-42
2022/05/14 10:59:12;;;;;;;3.35;1.00;;;;;;;26.96;22.85;98115.72;4984841;28;20096;-41
2022/05/14 11:01:53;;;;;;;11.32;1.75;;;;;;;25.69;24.38;98120.00;5008366;28;20047;-40
2022/05/14 11:04:20;;;;;;;4.32;1.02;;;;;;;24.81;25.23;98119.09;4974796;28;20055;-40
2022/05/14 11:06:59;;;;;;;3.05;0.80;;;;;;;24.10;24.46;98112.34;5004821;28;20125;-40
2022/05/14 11:09:31;;;;;;;13.77;1.50;;;;;;;25.49;23.76;98110.09;5011690;28;20045;-42
2022/05/14 11:11:59;;;;;;;10.90;1.45;;;;;;;25.01;23.55;98117.63;5007010;28;20054;-40
2022/05/14 11:14:36;;;;;;;32.55;4.03;;;;;;;24.84;25.25;98122.25;4993689;28;20496;-42
2022/05/14 11:17:02;;;;;;;22.60;2.42;;;;;;;26.98;23.05;98117.19;4999516;28;20077;-42
2022/05/14 11:19:31;;;;;;;2.67;0.98;;;;;;;28.05;20.83;98122.06;5005642;28;20039;-40
2022/05/14 11:21:58;;;;;;;4.40;1.08;;;;;;;26.89;21.63;98117.53;4989571;28;20045;-42
2022/05/14 11:24:36;;;;;;;3.53;1.10;;;;;;;25.97;22.63;98109.47;4972977;28;20039;-41
2022/05/14 11:27:03;;;;;;;11.98;1.92;;;;;;;25.41;23.58;98112.84;4974344;28;20046;-41
2022/05/14 11:29:33;;;;;;;2.88;1.23;;;;;;;24.30;24.21;98124.19;4984689;28;20041;-41
2022/05/14 11:32:07;;;;;;;5.18;1.00;;;;;;;23.60;25.25;98108.31;4973606;28;20145;-41
2022/05/14 11:34:33;;;;;;;3.47;1.33;;;;;;;23.23;25.57;98119.56;4989315;28;20053;-41
2022/05/14 11:37:00;;;;;;;8.70;1.73;;;;;;;22.58;26.39;98087.00;4973160;28;20042;-40
2022/05/14 11:39:40;;;;;;;1.95;0.77;;;;;;;22.01;26.85;98117.94;4956653;28;20089;-41
2022/05/14 11:42:29;;;;;;;3.28;0.90;;;;;;;21.54;27.47;98126.38;4973222;28;20047;-41
2022/05/14 11:45:14;;;;;;;2.35;0.88;;;;;;;22.17;26.13;98131.19;4989130;28;20430;-40
2022/05/14 11:47:59;;;;;;;4.05;0.95;;;;;;;22.76;25.48;98126.63;4993217;28;20034;-40
2022/05/14 11:50:36;;;;;;;4.35;1.00;;;;;;;23.13;25.32;98124.19;4979913;28;20541;-41
2022/05/14 11:53:10;;;;;;;1.83;0.85;;;;;;;22.35;26.03;98126.56;4984557;28;20042;-41
2022/05/14 11:55:52;;;;;;;2.45;1.13;;;;;;;21.96;26.73;98126.38;5004823;28;20093;-41
2022/05/14 11:58:24;;;;;;;14.10;3.10;;;;;;;21.92;27.30;98137.41;4992204;28;20042;-41
2022/05/14 12:00:51;;;;;;;7.47;2.15;;;;;;;21.84;27.39;98124.16;4974120;28;20039;-41
2022/05/14 12:03:36;;;;;;;3.08;1.48;;;;;;;23.70;25.35;98129.34;4973465;28;20059;-43
2022/05/14 12:06:20;;;;;;;3.10;1.30;;;;;;;25.65;23.22;98120.53;4972683;28;20046;-42